sensor_id;sensor_type;location;lat;lon;timestamp;pressure;altitude;pressure_sealevel;temperature;humidity
5380;BME280;2713;42.680;23.310;2023-02-03T00:01:49;95305.69;;;4.95;66.09
5380;BME280;2713;42.680;23.310;2023-02-03T00:04:16;95308.28;;;4.85;66.83
5380;BME280;2713;42.680;23.310;2023-02-03T00:06:44;95305.44;;;4.88;67.73
5380;BME280;2713;42.680;23.310;2023-02-03T00:09:12;95307.06;;;4.89;67.60
5380;BME280;2713;42.680;23.310;2023-02-03T00:11:39;95321.94;;;5.05;67.57
5380;BME280;2713;42.680;23.310;2023-02-03T00:14:05;95320.88;;;4.98;67.35
5380;BME280;2713;42.680;23.310;2023-02-03T00:16:33;95330.38;;;4.78;68.40
5380;BME280;2713;42.680;23.310;2023-02-03T00:19:00;95320.59;;;4.91;68.22
5380;BME280;2713;42.680;23.310;2023-02-03T00:21:27;95319.94;;;4.89;68.05
5380;BME280;2713;42.680;23.310;2023-02-03T00:23:55;95322.66;;;4.88;69.33
5380;BME280;2713;42.680;23.310;2023-02-03T00:26:21;95318.88;;;4.82;69.09
5380;BME280;2713;42.680;23.310;2023-02-03T00:28:50;95325.91;;;4.80;70.50
5380;BME280;2713;42.680;23.310;2023-02-03T00:31:18;95328.34;;;4.82;70.06
5380;BME280;2713;42.680;23.310;2023-02-03T00:33:46;95325.59;;;5.02;69.55
5380;BME280;2713;42.680;23.310;2023-02-03T00:36:13;95322.50;;;4.99;69.17
5380;BME280;2713;42.680;23.310;2023-02-03T00:38:40;95333.59;;;5.09;69.61
5380;BME280;2713;42.680;23.310;2023-02-03T00:41:09;95337.44;;;4.86;70.23
5380;BME280;2713;42.680;23.310;2023-02-03T00:43:36;95341.50;;;4.79;70.77
5380;BME280;2713;42.680;23.310;2023-02-03T00:46:03;95344.31;;;4.95;70.23
5380;BME280;2713;42.680;23.310;2023-02-03T00:48:30;95342.81;;;5.02;70.02
5380;BME280;2713;42.680;23.310;2023-02-03T00:50:57;95340.94;;;4.94;70.50
5380;BME280;2713;42.680;23.310;2023-02-03T00:53:24;95339.19;;;4.85;71.19
5380;BME280;2713;42.680;23.310;2023-02-03T00:55:51;95344.47;;;4.74;71.63
5380;BME280;2713;42.680;23.310;2023-02-03T00:58:19;95350.13;;;4.97;71.19
5380;BME280;2713;42.680;23.310;2023-02-03T01:00:46;95344.59;;;5.01;70.17
5380;BME280;2713;42.680;23.310;2023-02-03T01:03:12;95354.75;;;4.93;71.38
5380;BME280;2713;42.680;23.310;2023-02-03T01:05:39;95358.69;;;4.97;70.11
5380;BME280;2713;42.680;23.310;2023-02-03T01:08:06;95370.91;;;4.95;70.55
5380;BME280;2713;42.680;23.310;2023-02-03T01:10:33;95362.75;;;4.90;71.17
5380;BME280;2713;42.680;23.310;2023-02-03T01:13:00;95369.97;;;4.68;72.29
5380;BME280;2713;42.680;23.310;2023-02-03T01:15:28;95366.56;;;4.67;73.54
5380;BME280;2713;42.680;23.310;2023-02-03T01:17:55;95357.63;;;4.62;72.76
5380;BME280;2713;42.680;23.310;2023-02-03T01:20:21;95364.00;;;4.48;73.51
5380;BME280;2713;42.680;23.310;2023-02-03T01:22:48;95365.22;;;4.53;71.96
5380;BME280;2713;42.680;23.310;2023-02-03T01:25:15;95359.13;;;4.54;71.82
5380;BME280;2713;42.680;23.310;2023-02-03T01:27:42;95350.19;;;4.68;71.71
5380;BME280;2713;42.680;23.310;2023-02-03T01:30:10;95354.63;;;4.66;70.88
5380;BME280;2713;42.680;23.310;2023-02-03T01:32:38;95347.75;;;4.57;71.10
5380;BME280;2713;42.680;23.310;2023-02-03T01:35:06;95342.88;;;4.44;71.09
5380;BME280;2713;42.680;23.310;2023-02-03T01:37:32;95346.94;;;4.37;71.79
5380;BME280;2713;42.680;23.310;2023-02-03T01:39:59;95347.72;;;4.28;71.47
5380;BME280;2713;42.680;23.310;2023-02-03T01:42:27;95359.78;;;4.28;71.22
5380;BME280;2713;42.680;23.310;2023-02-03T01:44:58;95358.91;;;4.08;72.09
5380;BME280;2713;42.680;23.310;2023-02-03T01:47:28;95372.22;;;4.13;71.69
5380;BME280;2713;42.680;23.310;2023-02-03T01:50:08;95383.19;;;4.15;71.57
5380;BME280;2713;42.680;23.310;2023-02-03T01:52:39;95372.63;;;4.18;71.92
5380;BME280;2713;42.680;23.310;2023-02-03T01:55:10;95379.94;;;4.32;70.77
5380;BME280;2713;42.680;23.310;2023-02-03T01:57:41;95375.91;;;4.30;70.66
5380;BME280;2713;42.680;23.310;2023-02-03T02:00:11;95377.91;;;4.26;71.55
5380;BME280;2713;42.680;23.310;2023-02-03T02:02:42;95374.00;;;4.32;71.08
5380;BME280;2713;42.680;23.310;2023-02-03T02:05:15;95383.34;;;4.42;70.20
5380;BME280;2713;42.680;23.310;2023-02-03T02:07:46;95387.16;;;4.48;70.77
5380;BME280;2713;42.680;23.310;2023-02-03T02:10:13;95388.66;;;4.60;70.01
5380;BME280;2713;42.680;23.310;2023-02-03T02:12:40;95391.22;;;4.50;70.51
5380;BME280;2713;42.680;23.310;2023-02-03T02:15:08;95390.13;;;4.53;69.45
5380;BME280;2713;42.680;23.310;2023-02-03T02:18:04;95391.09;;;4.62;69.29
5380;BME280;2713;42.680;23.310;2023-02-03T02:26:39;95397.69;;;4.26;69.55
5380;BME280;2713;42.680;23.310;2023-02-03T02:32:34;95398.88;;;4.12;70.00
5380;BME280;2713;42.680;23.310;2023-02-03T02:35:14;95394.66;;;4.11;71.02
5380;BME280;2713;42.680;23.310;2023-02-03T02:37:47;95392.78;;;4.03;70.67
5380;BME280;2713;42.680;23.310;2023-02-03T02:40:22;95400.19;;;3.97;70.87
5380;BME280;2713;42.680;23.310;2023-02-03T02:43:01;95401.44;;;4.12;70.72
5380;BME280;2713;42.680;23.310;2023-02-03T02:45:36;95403.06;;;4.03;70.42
5380;BME280;2713;42.680;23.310;2023-02-03T02:48:08;95388.56;;;4.02;71.13
5380;BME280;2713;42.680;23.310;2023-02-03T02:50:44;95410.16;;;4.30;70.23
5380;BME280;2713;42.680;23.310;2023-02-03T02:53:13;95412.72;;;4.30;69.91
5380;BME280;2713;42.680;23.310;2023-02-03T02:55:42;95421.09;;;4.13;70.89
5380;BME280;2713;42.680;23.310;2023-02-03T02:58:12;95424.34;;;4.25;70.16
5380;BME280;2713;42.680;23.310;2023-02-03T03:00:40;95413.97;;;4.45;68.41
5380;BME280;2713;42.680;23.310;2023-02-03T03:03:15;95407.06;;;4.46;68.03
5380;BME280;2713;42.680;23.310;2023-02-03T03:05:45;95431.38;;;4.13;67.58
5380;BME280;2713;42.680;23.310;2023-02-03T03:08:19;95419.59;;;4.11;67.90
5380;BME280;2713;42.680;23.310;2023-02-03T03:10:47;95430.53;;;4.03;68.15
5380;BME280;2713;42.680;23.310;2023-02-03T03:13:19;95433.25;;;4.11;68.25
5380;BME280;2713;42.680;23.310;2023-02-03T03:15:47;95426.69;;;3.97;67.33
5380;BME280;2713;42.680;23.310;2023-02-03T03:18:21;95433.69;;;4.16;66.99
5380;BME280;2713;42.680;23.310;2023-02-03T03:20:52;95434.31;;;3.99;67.66
5380;BME280;2713;42.680;23.310;2023-02-03T03:23:25;95447.03;;;4.00;66.91
5380;BME280;2713;42.680;23.310;2023-02-03T03:25:59;95438.50;;;4.00;67.43
5380;BME280;2713;42.680;23.310;2023-02-03T03:28:32;95449.84;;;3.97;66.68
5380;BME280;2713;42.680;23.310;2023-02-03T03:31:01;95437.31;;;4.04;66.56
5380;BME280;2713;42.680;23.310;2023-02-03T03:33:29;95442.97;;;4.07;67.05
5380;BME280;2713;42.680;23.310;2023-02-03T03:36:00;95442.84;;;3.99;66.23
5380;BME280;2713;42.680;23.310;2023-02-03T03:38:32;95436.13;;;3.87;66.27
5380;BME280;2713;42.680;23.310;2023-02-03T03:41:02;95442.66;;;3.91;66.39
5380;BME280;2713;42.680;23.310;2023-02-03T03:43:34;95448.16;;;3.77;67.07
5380;BME280;2713;42.680;23.310;2023-02-03T03:46:09;95449.41;;;3.83;67.21
5380;BME280;2713;42.680;23.310;2023-02-03T03:48:45;95441.66;;;3.73;66.87
5380;BME280;2713;42.680;23.310;2023-02-03T03:51:18;95427.19;;;3.82;67.59
5380;BME280;2713;42.680;23.310;2023-02-03T03:53:49;95436.41;;;3.84;67.19
5380;BME280;2713;42.680;23.310;2023-02-03T03:56:21;95428.84;;;3.83;67.36
5380;BME280;2713;42.680;23.310;2023-02-03T03:58:51;95433.97;;;3.83;66.98
5380;BME280;2713;42.680;23.310;2023-02-03T04:01:20;95417.09;;;3.90;66.97
5380;BME280;2713;42.680;23.310;2023-02-03T04:03:53;95423.16;;;3.89;67.33
5380;BME280;2713;42.680;23.310;2023-02-03T04:06:22;95433.19;;;3.92;67.34
5380;BME280;2713;42.680;23.310;2023-02-03T04:08:49;95437.81;;;3.68;68.44
5380;BME280;2713;42.680;23.310;2023-02-03T04:11:16;95439.47;;;3.69;68.23
5380;BME280;2713;42.680;23.310;2023-02-03T04:13:56;95444.75;;;3.77;67.93
5380;BME280;2713;42.680;23.310;2023-02-03T04:16:23;95443.75;;;3.89;67.65
5380;BME280;2713;42.680;23.310;2023-02-03T04:18:51;95446.56;;;3.86;67.87
5380;BME280;2713;42.680;23.310;2023-02-03T04:21:18;95441.13;;;3.79;66.93
5380;BME280;2713;42.680;23.310;2023-02-03T04:23:45;95466.97;;;3.78;66.80
5380;BME280;2713;42.680;23.310;2023-02-03T04:26:12;95466.22;;;3.87;67.27
5380;BME280;2713;42.680;23.310;2023-02-03T04:28:39;95476.22;;;3.90;66.90
5380;BME280;2713;42.680;23.310;2023-02-03T04:31:05;95486.69;;;3.77;67.29
5380;BME280;2713;42.680;23.310;2023-02-03T04:33:32;95479.50;;;4.01;66.42
5380;BME280;2713;42.680;23.310;2023-02-03T04:36:00;95489.25;;;3.98;66.29
5380;BME280;2713;42.680;23.310;2023-02-03T04:38:27;95480.81;;;3.86;66.76
5380;BME280;2713;42.680;23.310;2023-02-03T04:40:54;95487.19;;;3.92;66.81
5380;BME280;2713;42.680;23.310;2023-02-03T04:43:21;95499.53;;;3.98;67.13
5380;BME280;2713;42.680;23.310;2023-02-03T04:45:47;95501.28;;;3.97;67.13
5380;BME280;2713;42.680;23.310;2023-02-03T04:48:14;95503.25;;;4.15;66.32
5380;BME280;2713;42.680;23.310;2023-02-03T04:50:41;95514.72;;;4.31;66.14
5380;BME280;2713;42.680;23.310;2023-02-03T04:53:09;95511.44;;;4.29;65.19
5380;BME280;2713;42.680;23.310;2023-02-03T04:55:36;95518.31;;;4.19;66.32
5380;BME280;2713;42.680;23.310;2023-02-03T04:58:03;95514.88;;;4.39;66.00
5380;BME280;2713;42.680;23.310;2023-02-03T05:00:29;95517.63;;;4.17;65.79
5380;BME280;2713;42.680;23.310;2023-02-03T05:02:56;95522.13;;;4.25;65.87
5380;BME280;2713;42.680;23.310;2023-02-03T05:05:23;95527.97;;;4.27;65.79
5380;BME280;2713;42.680;23.310;2023-02-03T05:07:50;95526.81;;;4.50;64.77
5380;BME280;2713;42.680;23.310;2023-02-03T05:10:18;95524.41;;;4.58;65.53
5380;BME280;2713;42.680;23.310;2023-02-03T05:12:45;95531.16;;;4.59;65.25
5380;BME280;2713;42.680;23.310;2023-02-03T05:15:12;95535.00;;;4.65;64.08
5380;BME280;2713;42.680;23.310;2023-02-03T05:17:38;95540.91;;;4.55;64.41
5380;BME280;2713;42.680;23.310;2023-02-03T05:20:06;95551.75;;;4.49;65.47
5380;BME280;2713;42.680;23.310;2023-02-03T05:22:33;95557.44;;;4.53;64.58
5380;BME280;2713;42.680;23.310;2023-02-03T05:25:01;95550.88;;;4.39;64.74
5380;BME280;2713;42.680;23.310;2023-02-03T05:27:29;95562.03;;;4.49;65.03
5380;BME280;2713;42.680;23.310;2023-02-03T05:29:56;95550.13;;;4.48;64.73
5380;BME280;2713;42.680;23.310;2023-02-03T05:32:23;95565.47;;;4.29;65.24
5380;BME280;2713;42.680;23.310;2023-02-03T05:34:50;95554.53;;;4.37;64.83
5380;BME280;2713;42.680;23.310;2023-02-03T05:37:16;95560.06;;;4.32;65.16
5380;BME280;2713;42.680;23.310;2023-02-03T05:39:43;95555.03;;;4.21;64.94
5380;BME280;2713;42.680;23.310;2023-02-03T05:42:10;95555.28;;;3.97;66.19
5380;BME280;2713;42.680;23.310;2023-02-03T05:44:37;95548.38;;;3.98;66.70
5380;BME280;2713;42.680;23.310;2023-02-03T05:47:04;95550.22;;;4.07;66.85
5380;BME280;2713;42.680;23.310;2023-02-03T05:49:31;95550.28;;;3.96;66.39
5380;BME280;2713;42.680;23.310;2023-02-03T05:51:58;95561.41;;;3.76;67.58
5380;BME280;2713;42.680;23.310;2023-02-03T05:54:24;95556.88;;;3.89;67.33
5380;BME280;2713;42.680;23.310;2023-02-03T05:56:51;95566.41;;;3.98;66.68
5380;BME280;2713;42.680;23.310;2023-02-03T05:59:18;95575.63;;;4.00;66.58
5380;BME280;2713;42.680;23.310;2023-02-03T06:01:46;95572.72;;;3.94;67.11
5380;BME280;2713;42.680;23.310;2023-02-03T06:04:13;95570.72;;;3.97;66.80
5380;BME280;2713;42.680;23.310;2023-02-03T06:06:40;95567.78;;;4.02;66.67
5380;BME280;2713;42.680;23.310;2023-02-03T06:09:07;95577.19;;;4.13;66.65
5380;BME280;2713;42.680;23.310;2023-02-03T06:11:34;95580.63;;;4.02;66.43
5380;BME280;2713;42.680;23.310;2023-02-03T06:14:02;95581.34;;;4.04;65.75
5380;BME280;2713;42.680;23.310;2023-02-03T06:16:28;95591.13;;;4.10;65.99
5380;BME280;2713;42.680;23.310;2023-02-03T06:18:57;95587.28;;;4.04;66.55
5380;BME280;2713;42.680;23.310;2023-02-03T06:21:25;95585.81;;;4.12;66.00
5380;BME280;2713;42.680;23.310;2023-02-03T06:23:52;95584.59;;;4.06;65.79
5380;BME280;2713;42.680;23.310;2023-02-03T06:26:19;95593.84;;;4.18;65.64
5380;BME280;2713;42.680;23.310;2023-02-03T06:28:46;95598.44;;;4.15;64.92
5380;BME280;2713;42.680;23.310;2023-02-03T06:31:13;95590.81;;;4.03;65.55
5380;BME280;2713;42.680;23.310;2023-02-03T06:33:40;95589.94;;;3.93;65.48
5380;BME280;2713;42.680;23.310;2023-02-03T06:36:08;95604.97;;;3.98;66.02
5380;BME280;2713;42.680;23.310;2023-02-03T06:38:35;95600.59;;;4.09;65.44
5380;BME280;2713;42.680;23.310;2023-02-03T06:41:02;95611.56;;;4.12;64.67
5380;BME280;2713;42.680;23.310;2023-02-03T06:43:29;95615.56;;;4.25;64.72
5380;BME280;2713;42.680;23.310;2023-02-03T06:45:56;95624.06;;;4.46;64.45
5380;BME280;2713;42.680;23.310;2023-02-03T06:48:23;95630.56;;;4.71;62.42
5380;BME280;2713;42.680;23.310;2023-02-03T06:50:49;95625.97;;;4.75;61.83
5380;BME280;2713;42.680;23.310;2023-02-03T06:53:18;95631.19;;;4.64;62.24
5380;BME280;2713;42.680;23.310;2023-02-03T06:55:45;95632.28;;;4.61;61.59
5380;BME280;2713;42.680;23.310;2023-02-03T06:58:12;95640.94;;;4.60;61.36
5380;BME280;2713;42.680;23.310;2023-02-03T07:00:39;95622.28;;;4.68;61.98
5380;BME280;2713;42.680;23.310;2023-02-03T07:03:05;95633.03;;;4.82;61.65
5380;BME280;2713;42.680;23.310;2023-02-03T07:05:32;95632.13;;;4.63;61.91
5380;BME280;2713;42.680;23.310;2023-02-03T07:08:00;95636.97;;;4.56;61.63
5380;BME280;2713;42.680;23.310;2023-02-03T07:10:28;95635.44;;;4.44;62.00
5380;BME280;2713;42.680;23.310;2023-02-03T07:13:01;95619.25;;;4.63;61.56
5380;BME280;2713;42.680;23.310;2023-02-03T07:15:28;95629.88;;;4.69;62.02
5380;BME280;2713;42.680;23.310;2023-02-03T07:17:54;95625.00;;;4.45;62.09
5380;BME280;2713;42.680;23.310;2023-02-03T07:20:21;95628.06;;;4.60;61.95
5380;BME280;2713;42.680;23.310;2023-02-03T07:22:52;95622.25;;;4.58;62.09
5380;BME280;2713;42.680;23.310;2023-02-03T07:25:20;95628.19;;;4.58;61.34
5380;BME280;2713;42.680;23.310;2023-02-03T07:27:48;95639.69;;;4.54;61.48
5380;BME280;2713;42.680;23.310;2023-02-03T07:30:15;95634.28;;;4.57;61.95
5380;BME280;2713;42.680;23.310;2023-02-03T07:32:46;95637.31;;;4.42;62.43
5380;BME280;2713;42.680;23.310;2023-02-03T07:35:13;95644.69;;;4.26;61.63
5380;BME280;2713;42.680;23.310;2023-02-03T07:37:40;95633.31;;;4.28;61.82
5380;BME280;2713;42.680;23.310;2023-02-03T07:40:08;95641.38;;;4.35;61.35
5380;BME280;2713;42.680;23.310;2023-02-03T07:42:37;95647.88;;;4.39;61.58
5380;BME280;2713;42.680;23.310;2023-02-03T07:45:07;95658.16;;;4.39;62.82
5380;BME280;2713;42.680;23.310;2023-02-03T07:47:34;95660.16;;;4.35;62.17
5380;BME280;2713;42.680;23.310;2023-02-03T07:50:00;95642.34;;;4.23;62.07
5380;BME280;2713;42.680;23.310;2023-02-03T07:52:27;95659.22;;;4.36;61.32
5380;BME280;2713;42.680;23.310;2023-02-03T07:54:54;95655.22;;;4.23;62.09
5380;BME280;2713;42.680;23.310;2023-02-03T07:57:21;95658.34;;;4.47;61.50
5380;BME280;2713;42.680;23.310;2023-02-03T07:59:48;95663.72;;;4.65;60.31
5380;BME280;2713;42.680;23.310;2023-02-03T08:02:35;95664.19;;;5.09;59.58
5380;BME280;2713;42.680;23.310;2023-02-03T08:06:06;95659.41;;;5.54;58.05
5380;BME280;2713;42.680;23.310;2023-02-03T08:13:22;95653.13;;;6.53;55.41
5380;BME280;2713;42.680;23.310;2023-02-03T08:31:33;95658.38;;;7.52;51.91
5380;BME280;2713;42.680;23.310;2023-02-03T08:34:00;95664.75;;;7.76;51.73
5380;BME280;2713;42.680;23.310;2023-02-03T08:36:27;95663.50;;;7.97;50.99
5380;BME280;2713;42.680;23.310;2023-02-03T08:38:54;95661.19;;;8.12;51.40
5380;BME280;2713;42.680;23.310;2023-02-03T08:41:21;95675.34;;;8.18;50.44
5380;BME280;2713;42.680;23.310;2023-02-03T08:43:49;95681.66;;;7.52;51.35
5380;BME280;2713;42.680;23.310;2023-02-03T08:46:16;95683.94;;;6.64;52.94
5380;BME280;2713;42.680;23.310;2023-02-03T08:48:43;95693.56;;;6.81;52.77
5380;BME280;2713;42.680;23.310;2023-02-03T08:51:10;95681.88;;;6.77;52.84
5380;BME280;2713;42.680;23.310;2023-02-03T08:53:37;95701.59;;;6.69;53.12
5380;BME280;2713;42.680;23.310;2023-02-03T08:56:05;95696.28;;;6.70;53.49
5380;BME280;2713;42.680;23.310;2023-02-03T08:58:32;95680.09;;;6.78;53.59
5380;BME280;2713;42.680;23.310;2023-02-03T09:01:06;95681.81;;;6.87;54.08
5380;BME280;2713;42.680;23.310;2023-02-03T09:03:34;95690.81;;;6.07;54.91
5380;BME280;2713;42.680;23.310;2023-02-03T09:06:01;95688.84;;;5.61;56.46
5380;BME280;2713;42.680;23.310;2023-02-03T09:08:28;95693.13;;;5.32;57.12
5380;BME280;2713;42.680;23.310;2023-02-03T09:10:55;95692.31;;;5.41;58.93
5380;BME280;2713;42.680;23.310;2023-02-03T09:13:22;95686.00;;;5.15;58.41
5380;BME280;2713;42.680;23.310;2023-02-03T09:15:49;95681.03;;;5.23;58.33
5380;BME280;2713;42.680;23.310;2023-02-03T09:18:17;95682.69;;;5.34;58.74
5380;BME280;2713;42.680;23.310;2023-02-03T09:20:44;95674.78;;;5.26;58.87
5380;BME280;2713;42.680;23.310;2023-02-03T09:23:11;95684.31;;;5.35;60.03
5380;BME280;2713;42.680;23.310;2023-02-03T09:25:38;95680.25;;;5.42;59.36
5380;BME280;2713;42.680;23.310;2023-02-03T09:28:04;95692.44;;;5.30;58.38
5380;BME280;2713;42.680;23.310;2023-02-03T09:30:31;95681.31;;;5.30;59.99
5380;BME280;2713;42.680;23.310;2023-02-03T09:32:58;95680.53;;;5.39;59.51
5380;BME280;2713;42.680;23.310;2023-02-03T09:35:26;95674.13;;;5.33;58.79
5380;BME280;2713;42.680;23.310;2023-02-03T09:37:54;95675.09;;;5.32;58.79
5380;BME280;2713;42.680;23.310;2023-02-03T09:40:25;95677.41;;;5.45;58.78
5380;BME280;2713;42.680;23.310;2023-02-03T09:43:00;95678.78;;;5.58;57.71
5380;BME280;2713;42.680;23.310;2023-02-03T09:45:30;95680.63;;;5.87;56.44
5380;BME280;2713;42.680;23.310;2023-02-03T09:47:59;95674.53;;;5.38;55.14
5380;BME280;2713;42.680;23.310;2023-02-03T09:50:32;95673.59;;;5.30;55.39
5380;BME280;2713;42.680;23.310;2023-02-03T09:53:05;95672.38;;;5.34;54.42
5380;BME280;2713;42.680;23.310;2023-02-03T09:55:37;95666.44;;;5.52;55.94
5380;BME280;2713;42.680;23.310;2023-02-03T09:58:08;95648.50;;;5.32;56.33
5380;BME280;2713;42.680;23.310;2023-02-03T10:00:41;95671.38;;;5.16;56.26
5380;BME280;2713;42.680;23.310;2023-02-03T10:03:15;95665.72;;;5.31;56.66
5380;BME280;2713;42.680;23.310;2023-02-03T10:06:06;95651.78;;;5.53;56.69
5380;BME280;2713;42.680;23.310;2023-02-03T10:11:36;95659.78;;;5.50;54.69
5380;BME280;2713;42.680;23.310;2023-02-03T10:14:17;95665.63;;;5.52;54.76
5380;BME280;2713;42.680;23.310;2023-02-03T10:16:58;95652.44;;;5.45;55.17
5380;BME280;2713;42.680;23.310;2023-02-03T10:19:36;95659.06;;;5.29;55.79
5380;BME280;2713;42.680;23.310;2023-02-03T10:22:13;95647.94;;;5.28;56.39
5380;BME280;2713;42.680;23.310;2023-02-03T10:24:45;95653.78;;;5.30;56.63
5380;BME280;2713;42.680;23.310;2023-02-03T10:27:16;95637.41;;;5.41;57.12
5380;BME280;2713;42.680;23.310;2023-02-03T10:29:46;95649.03;;;5.35;55.01
5380;BME280;2713;42.680;23.310;2023-02-03T10:32:14;95644.31;;;5.31;52.67
5380;BME280;2713;42.680;23.310;2023-02-03T10:34:43;95657.84;;;5.23;52.26
5380;BME280;2713;42.680;23.310;2023-02-03T10:37:21;95650.94;;;5.24;51.60
5380;BME280;2713;42.680;23.310;2023-02-03T10:39:51;95649.56;;;5.29;52.26
5380;BME280;2713;42.680;23.310;2023-02-03T10:42:18;95647.66;;;5.31;53.13
5380;BME280;2713;42.680;23.310;2023-02-03T10:44:48;95641.47;;;5.34;53.52
5380;BME280;2713;42.680;23.310;2023-02-03T10:47:24;95653.66;;;5.41;54.40
5380;BME280;2713;42.680;23.310;2023-02-03T10:49:54;95650.69;;;5.55;54.00
5380;BME280;2713;42.680;23.310;2023-02-03T10:52:28;95653.69;;;5.51;51.55
5380;BME280;2713;42.680;23.310;2023-02-03T10:54:56;95656.94;;;5.43;52.23
5380;BME280;2713;42.680;23.310;2023-02-03T10:57:24;95663.03;;;5.42;51.94
5380;BME280;2713;42.680;23.310;2023-02-03T11:00:03;95665.50;;;5.63;50.30
5380;BME280;2713;42.680;23.310;2023-02-03T11:02:30;95659.94;;;5.68;48.57
5380;BME280;2713;42.680;23.310;2023-02-03T11:05:18;95660.50;;;5.61;49.38
5380;BME280;2713;42.680;23.310;2023-02-03T11:07:47;95655.59;;;5.78;49.25
5380;BME280;2713;42.680;23.310;2023-02-03T11:10:31;95647.44;;;5.63;48.35
5380;BME280;2713;42.680;23.310;2023-02-03T11:13:18;95648.81;;;5.77;48.55
5380;BME280;2713;42.680;23.310;2023-02-03T11:15:53;95652.88;;;5.60;49.16
5380;BME280;2713;42.680;23.310;2023-02-03T11:18:43;95651.38;;;5.57;49.38
5380;BME280;2713;42.680;23.310;2023-02-03T11:21:16;95641.19;;;5.56;49.52
5380;BME280;2713;42.680;23.310;2023-02-03T11:23:48;95635.91;;;5.67;50.26
5380;BME280;2713;42.680;23.310;2023-02-03T11:26:19;95628.47;;;5.64;50.76
5380;BME280;2713;42.680;23.310;2023-02-03T11:28:50;95626.00;;;5.62;50.30
5380;BME280;2713;42.680;23.310;2023-02-03T11:31:21;95618.81;;;5.76;49.68
5380;BME280;2713;42.680;23.310;2023-02-03T11:33:53;95618.69;;;5.96;49.18
5380;BME280;2713;42.680;23.310;2023-02-03T11:36:25;95619.22;;;6.19;48.53
5380;BME280;2713;42.680;23.310;2023-02-03T11:39:07;95607.38;;;6.26;47.60
5380;BME280;2713;42.680;23.310;2023-02-03T11:41:37;95603.72;;;6.29;48.13
5380;BME280;2713;42.680;23.310;2023-02-03T11:44:10;95600.16;;;6.39;47.13
5380;BME280;2713;42.680;23.310;2023-02-03T11:46:38;95608.75;;;6.11;46.86
5380;BME280;2713;42.680;23.310;2023-02-03T11:49:13;95603.88;;;6.08;47.03
5380;BME280;2713;42.680;23.310;2023-02-03T11:51:48;95608.91;;;6.00;46.71
5380;BME280;2713;42.680;23.310;2023-02-03T11:54:25;95613.66;;;6.14;45.01
5380;BME280;2713;42.680;23.310;2023-02-03T11:57:11;95592.50;;;6.84;61.75
5380;BME280;2713;42.680;23.310;2023-02-03T11:59:55;95598.44;;;6.94;42.99
5380;BME280;2713;42.680;23.310;2023-02-03T12:02:53;95604.41;;;6.95;41.73
5380;BME280;2713;42.680;23.310;2023-02-03T12:05:43;95602.03;;;6.37;43.66
5380;BME280;2713;42.680;23.310;2023-02-03T12:08:23;95571.63;;;6.31;41.61
5380;BME280;2713;42.680;23.310;2023-02-03T12:11:03;95607.44;;;6.53;42.03
5380;BME280;2713;42.680;23.310;2023-02-03T12:13:52;95598.56;;;6.19;42.29
5380;BME280;2713;42.680;23.310;2023-02-03T12:16:47;95603.47;;;6.13;44.02
5380;BME280;2713;42.680;23.310;2023-02-03T12:19:29;95604.84;;;5.88;42.28
5380;BME280;2713;42.680;23.310;2023-02-03T12:22:07;95607.81;;;5.83;42.55
5380;BME280;2713;42.680;23.310;2023-02-03T12:24:44;95595.84;;;5.82;41.36
5380;BME280;2713;42.680;23.310;2023-02-03T12:27:24;95595.91;;;5.92;42.08
5380;BME280;2713;42.680;23.310;2023-02-03T12:29:58;95600.88;;;6.03;41.72
5380;BME280;2713;42.680;23.310;2023-02-03T12:32:32;95603.75;;;5.71;42.54
5380;BME280;2713;42.680;23.310;2023-02-03T12:35:10;95593.31;;;5.53;42.85
5380;BME280;2713;42.680;23.310;2023-02-03T12:37:43;95594.78;;;5.56;42.93
5380;BME280;2713;42.680;23.310;2023-02-03T12:40:17;95588.00;;;5.65;43.86
5380;BME280;2713;42.680;23.310;2023-02-03T12:42:51;95585.84;;;5.60;44.07
5380;BME280;2713;42.680;23.310;2023-02-03T12:45:24;95575.94;;;5.75;43.73
5380;BME280;2713;42.680;23.310;2023-02-03T12:47:56;95554.47;;;5.55;43.84
5380;BME280;2713;42.680;23.310;2023-02-03T12:50:31;95577.97;;;5.71;44.50
5380;BME280;2713;42.680;23.310;2023-02-03T12:53:04;95572.78;;;6.00;44.14
5380;BME280;2713;42.680;23.310;2023-02-03T12:55:38;95571.22;;;6.36;43.89
5380;BME280;2713;42.680;23.310;2023-02-03T12:58:11;95548.22;;;6.42;43.58
5380;BME280;2713;42.680;23.310;2023-02-03T13:00:44;95551.53;;;6.25;44.18
5380;BME280;2713;42.680;23.310;2023-02-03T13:06:01;95543.75;;;5.98;45.48
5380;BME280;2713;42.680;23.310;2023-02-03T13:08:34;95544.97;;;5.94;46.94
5380;BME280;2713;42.680;23.310;2023-02-03T13:11:10;95547.28;;;5.87;47.63
5380;BME280;2713;42.680;23.310;2023-02-03T13:13:43;95534.09;;;5.81;48.03
5380;BME280;2713;42.680;23.310;2023-02-03T13:16:14;95545.25;;;5.91;48.22
5380;BME280;2713;42.680;23.310;2023-02-03T13:18:46;95544.81;;;6.05;47.17
5380;BME280;2713;42.680;23.310;2023-02-03T13:21:14;95542.78;;;5.80;47.61
5380;BME280;2713;42.680;23.310;2023-02-03T13:23:42;95547.69;;;5.63;47.59
5380;BME280;2713;42.680;23.310;2023-02-03T13:26:28;95544.56;;;5.70;48.12
5380;BME280;2713;42.680;23.310;2023-02-03T13:29:07;95539.66;;;5.76;47.82
5380;BME280;2713;42.680;23.310;2023-02-03T13:31:45;95544.59;;;5.50;48.13
5380;BME280;2713;42.680;23.310;2023-02-03T13:34:29;95531.00;;;5.39;49.28
5380;BME280;2713;42.680;23.310;2023-02-03T13:37:21;95538.63;;;5.40;49.92
5380;BME280;2713;42.680;23.310;2023-02-03T13:40:15;95540.66;;;5.46;50.23
5380;BME280;2713;42.680;23.310;2023-02-03T13:42:46;95542.13;;;5.49;50.44
5380;BME280;2713;42.680;23.310;2023-02-03T13:45:24;95544.06;;;5.37;49.25
5380;BME280;2713;42.680;23.310;2023-02-03T13:47:53;95532.50;;;5.22;48.94
5380;BME280;2713;42.680;23.310;2023-02-03T13:50:23;95541.22;;;5.31;49.63
5380;BME280;2713;42.680;23.310;2023-02-03T13:52:58;95542.16;;;5.20;49.51
5380;BME280;2713;42.680;23.310;2023-02-03T13:55:30;95544.44;;;5.33;50.28
5380;BME280;2713;42.680;23.310;2023-02-03T13:57:59;95545.50;;;5.11;50.98
5380;BME280;2713;42.680;23.310;2023-02-03T14:01:04;95544.28;;;5.05;51.13
5380;BME280;2713;42.680;23.310;2023-02-03T14:03:44;95549.19;;;5.28;51.04
5380;BME280;2713;42.680;23.310;2023-02-03T14:09:23;95547.16;;;5.31;51.26
5380;BME280;2713;42.680;23.310;2023-02-03T14:17:54;95535.38;;;5.57;50.82
5380;BME280;2713;42.680;23.310;2023-02-03T14:23:24;95548.25;;;5.38;50.65
5380;BME280;2713;42.680;23.310;2023-02-03T14:25:54;95545.41;;;5.51;50.36
5380;BME280;2713;42.680;23.310;2023-02-03T14:28:26;95529.13;;;5.50;50.13
5380;BME280;2713;42.680;23.310;2023-02-03T14:31:06;95543.75;;;5.59;50.03